sensor_id;sensor_type;location;lat;lon;timestamp;temperature;humidity
74294;DHT22;64044;59.904;10.738;2023-02-28T00:00:21;2.40;57.40
74294;DHT22;64044;59.904;10.738;2023-02-28T00:02:47;2.40;57.40
74294;DHT22;64044;59.904;10.738;2023-02-28T00:05:15;2.40;57.80
74294;DHT22;64044;59.904;10.738;2023-02-28T00:07:41;2.40;57.80
74294;DHT22;64044;59.904;10.738;2023-02-28T00:10:10;2.40;57.80
74294;DHT22;64044;59.904;10.738;2023-02-28T00:12:36;2.40;57.70
74294;DHT22;64044;59.904;10.738;2023-02-28T00:15:06;2.40;57.70
74294;DHT22;64044;59.904;10.738;2023-02-28T00:17:32;2.30;57.70
74294;DHT22;64044;59.904;10.738;2023-02-28T00:19:58;2.30;57.70
74294;DHT22;64044;59.904;10.738;2023-02-28T00:22:36;2.30;57.70
74294;DHT22;64044;59.904;10.738;2023-02-28T00:25:03;2.30;57.70
74294;DHT22;64044;59.904;10.738;2023-02-28T00:27:30;2.30;57.60
74294;DHT22;64044;59.904;10.738;2023-02-28T00:29:55;2.20;57.60
74294;DHT22;64044;59.904;10.738;2023-02-28T00:32:21;2.20;57.70
74294;DHT22;64044;59.904;10.738;2023-02-28T00:34:47;2.20;57.80
74294;DHT22;64044;59.904;10.738;2023-02-28T00:37:13;2.20;58.20
74294;DHT22;64044;59.904;10.738;2023-02-28T00:39:39;2.10;58.30
74294;DHT22;64044;59.904;10.738;2023-02-28T00:42:06;2.10;58.40
74294;DHT22;64044;59.904;10.738;2023-02-28T00:44:32;2.10;58.50
74294;DHT22;64044;59.904;10.738;2023-02-28T00:46:59;2.10;58.40
74294;DHT22;64044;59.904;10.738;2023-02-28T00:49:26;2.00;58.70
74294;DHT22;64044;59.904;10.738;2023-02-28T00:51:53;2.00;58.80
74294;DHT22;64044;59.904;10.738;2023-02-28T00:54:20;2.00;58.80
74294;DHT22;64044;59.904;10.738;2023-02-28T00:56:46;2.00;58.90
74294;DHT22;64044;59.904;10.738;2023-02-28T00:59:12;2.00;58.80
74294;DHT22;64044;59.904;10.738;2023-02-28T01:01:38;1.90;58.90
74294;DHT22;64044;59.904;10.738;2023-02-28T01:04:04;1.90;59.00
74294;DHT22;64044;59.904;10.738;2023-02-28T01:06:30;1.80;59.00
74294;DHT22;64044;59.904;10.738;2023-02-28T01:08:57;1.80;59.50
74294;DHT22;64044;59.904;10.738;2023-02-28T01:11:23;1.80;59.10
74294;DHT22;64044;59.904;10.738;2023-02-28T01:13:48;1.80;59.10
74294;DHT22;64044;59.904;10.738;2023-02-28T01:16:14;1.70;59.10
74294;DHT22;64044;59.904;10.738;2023-02-28T01:18:40;1.70;59.20
74294;DHT22;64044;59.904;10.738;2023-02-28T01:21:15;1.70;59.20
74294;DHT22;64044;59.904;10.738;2023-02-28T01:23:41;1.60;59.60
74294;DHT22;64044;59.904;10.738;2023-02-28T01:28:41;1.60;59.50
74294;DHT22;64044;59.904;10.738;2023-02-28T01:31:08;1.60;60.30
74294;DHT22;64044;59.904;10.738;2023-02-28T01:33:35;1.60;59.70
74294;DHT22;64044;59.904;10.738;2023-02-28T01:36:24;1.60;59.80
74294;DHT22;64044;59.904;10.738;2023-02-28T01:38:50;1.60;60.30
74294;DHT22;64044;59.904;10.738;2023-02-28T01:41:23;1.60;59.50
74294;DHT22;64044;59.904;10.738;2023-02-28T01:46:15;1.60;59.80
74294;DHT22;64044;59.904;10.738;2023-02-28T01:48:48;1.60;60.20
74294;DHT22;64044;59.904;10.738;2023-02-28T01:51:26;1.60;60.30
74294;DHT22;64044;59.904;10.738;2023-02-28T01:54:04;1.60;60.20
74294;DHT22;64044;59.904;10.738;2023-02-28T01:56:33;1.60;60.60
74294;DHT22;64044;59.904;10.738;2023-02-28T01:59:00;1.60;60.20
74294;DHT22;64044;59.904;10.738;2023-02-28T02:01:27;1.70;60.10
74294;DHT22;64044;59.904;10.738;2023-02-28T02:03:57;1.70;60.30
74294;DHT22;64044;59.904;10.738;2023-02-28T02:06:36;1.70;60.70
74294;DHT22;64044;59.904;10.738;2023-02-28T02:09:02;1.70;61.30
74294;DHT22;64044;59.904;10.738;2023-02-28T02:11:28;1.70;60.60
74294;DHT22;64044;59.904;10.738;2023-02-28T02:16:53;1.80;61.70
74294;DHT22;64044;59.904;10.738;2023-02-28T02:37:09;2.00;60.70
74294;DHT22;64044;59.904;10.738;2023-02-28T02:40:29;2.00;60.80
74294;DHT22;64044;59.904;10.738;2023-02-28T02:42:54;2.10;60.30
74294;DHT22;64044;59.904;10.738;2023-02-28T02:45:24;2.10;59.40
74294;DHT22;64044;59.904;10.738;2023-02-28T02:47:51;2.10;59.30
74294;DHT22;64044;59.904;10.738;2023-02-28T02:50:24;2.20;59.10
74294;DHT22;64044;59.904;10.738;2023-02-28T02:52:55;2.20;59.40
74294;DHT22;64044;59.904;10.738;2023-02-28T02:55:23;2.20;58.90
74294;DHT22;64044;59.904;10.738;2023-02-28T03:00:21;2.20;58.20
74294;DHT22;64044;59.904;10.738;2023-02-28T03:02:49;2.20;58.60
74294;DHT22;64044;59.904;10.738;2023-02-28T03:05:27;2.20;58.40
74294;DHT22;64044;59.904;10.738;2023-02-28T03:07:55;2.20;58.90
74294;DHT22;64044;59.904;10.738;2023-02-28T03:10:39;2.10;58.70
74294;DHT22;64044;59.904;10.738;2023-02-28T03:13:23;2.10;59.70
74294;DHT22;64044;59.904;10.738;2023-02-28T03:27:35;1.80;59.30
74294;DHT22;64044;59.904;10.738;2023-02-28T03:30:25;1.80;59.60
74294;DHT22;64044;59.904;10.738;2023-02-28T03:36:01;1.70;59.90
74294;DHT22;64044;59.904;10.738;2023-02-28T03:38:40;1.60;59.90
74294;DHT22;64044;59.904;10.738;2023-02-28T03:41:23;1.60;60.00
74294;DHT22;64044;59.904;10.738;2023-02-28T03:44:03;1.60;59.90
74294;DHT22;64044;59.904;10.738;2023-02-28T03:46:34;1.50;60.20
74294;DHT22;64044;59.904;10.738;2023-02-28T03:51:47;1.50;60.90
74294;DHT22;64044;59.904;10.738;2023-02-28T03:54:34;1.50;59.10
74294;DHT22;64044;59.904;10.738;2023-02-28T03:57:12;1.40;60.00
74294;DHT22;64044;59.904;10.738;2023-02-28T03:59:44;1.40;60.60
74294;DHT22;64044;59.904;10.738;2023-02-28T04:02:12;1.40;60.60
74294;DHT22;64044;59.904;10.738;2023-02-28T04:04:38;1.30;60.50
74294;DHT22;64044;59.904;10.738;2023-02-28T04:07:08;1.30;60.60
74294;DHT22;64044;59.904;10.738;2023-02-28T04:09:34;1.30;60.90
74294;DHT22;64044;59.904;10.738;2023-02-28T04:11:59;1.30;60.80
74294;DHT22;64044;59.904;10.738;2023-02-28T04:14:25;1.20;60.40
74294;DHT22;64044;59.904;10.738;2023-02-28T04:16:52;1.20;60.70
74294;DHT22;64044;59.904;10.738;2023-02-28T04:19:18;1.20;60.50
74294;DHT22;64044;59.904;10.738;2023-02-28T04:21:47;1.20;61.10
74294;DHT22;64044;59.904;10.738;2023-02-28T04:24:15;1.20;61.50
74294;DHT22;64044;59.904;10.738;2023-02-28T04:26:47;1.20;62.00
74294;DHT22;64044;59.904;10.738;2023-02-28T04:29:18;1.20;62.30
74294;DHT22;64044;59.904;10.738;2023-02-28T04:31:44;1.10;61.90
74294;DHT22;64044;59.904;10.738;2023-02-28T04:34:10;1.10;61.90
74294;DHT22;64044;59.904;10.738;2023-02-28T04:36:35;1.10;61.80
74294;DHT22;64044;59.904;10.738;2023-02-28T04:39:01;1.10;61.90
74294;DHT22;64044;59.904;10.738;2023-02-28T04:41:27;1.10;61.90
74294;DHT22;64044;59.904;10.738;2023-02-28T04:43:53;1.10;62.10
74294;DHT22;64044;59.904;10.738;2023-02-28T04:46:19;1.10;62.40
74294;DHT22;64044;59.904;10.738;2023-02-28T04:48:46;1.10;62.50
74294;DHT22;64044;59.904;10.738;2023-02-28T04:51:13;1.10;62.30
74294;DHT22;64044;59.904;10.738;2023-02-28T04:53:40;1.10;62.50
74294;DHT22;64044;59.904;10.738;2023-02-28T04:56:07;1.10;62.50
74294;DHT22;64044;59.904;10.738;2023-02-28T04:58:33;1.10;62.50
74294;DHT22;64044;59.904;10.738;2023-02-28T05:01:14;1.10;62.20
74294;DHT22;64044;59.904;10.738;2023-02-28T05:03:42;1.10;62.20
74294;DHT22;64044;59.904;10.738;2023-02-28T05:06:09;1.10;61.70
74294;DHT22;64044;59.904;10.738;2023-02-28T05:08:35;1.10;61.20
74294;DHT22;64044;59.904;10.738;2023-02-28T05:11:02;1.10;60.70
74294;DHT22;64044;59.904;10.738;2023-02-28T05:13:28;1.10;60.90
74294;DHT22;64044;59.904;10.738;2023-02-28T05:15:54;1.10;60.80
74294;DHT22;64044;59.904;10.738;2023-02-28T05:18:20;1.10;61.40
74294;DHT22;64044;59.904;10.738;2023-02-28T05:20:46;1.10;61.60
74294;DHT22;64044;59.904;10.738;2023-02-28T05:23:12;1.00;61.00
74294;DHT22;64044;59.904;10.738;2023-02-28T05:25:39;1.00;60.60
74294;DHT22;64044;59.904;10.738;2023-02-28T05:28:05;1.00;61.50
74294;DHT22;64044;59.904;10.738;2023-02-28T05:30:31;1.00;61.90
74294;DHT22;64044;59.904;10.738;2023-02-28T05:32:58;1.00;62.50
74294;DHT22;64044;59.904;10.738;2023-02-28T05:35:25;1.00;62.90
74294;DHT22;64044;59.904;10.738;2023-02-28T05:37:51;1.00;63.00
74294;DHT22;64044;59.904;10.738;2023-02-28T05:40:17;1.00;63.10
74294;DHT22;64044;59.904;10.738;2023-02-28T05:42:44;1.00;63.40
74294;DHT22;64044;59.904;10.738;2023-02-28T05:45:36;1.00;63.70
74294;DHT22;64044;59.904;10.738;2023-02-28T05:48:01;1.00;65.60
74294;DHT22;64044;59.904;10.738;2023-02-28T05:50:27;1.00;64.60
74294;DHT22;64044;59.904;10.738;2023-02-28T05:52:53;1.00;64.80
74294;DHT22;64044;59.904;10.738;2023-02-28T05:55:18;1.00;64.40
74294;DHT22;64044;59.904;10.738;2023-02-28T05:57:44;1.00;64.60
74294;DHT22;64044;59.904;10.738;2023-02-28T06:00:11;0.90;64.60
74294;DHT22;64044;59.904;10.738;2023-02-28T06:02:39;1.00;64.70
74294;DHT22;64044;59.904;10.738;2023-02-28T06:05:05;1.00;64.50
74294;DHT22;64044;59.904;10.738;2023-02-28T06:07:31;1.00;64.40
74294;DHT22;64044;59.904;10.738;2023-02-28T06:09:57;0.90;64.10
74294;DHT22;64044;59.904;10.738;2023-02-28T06:12:22;0.90;63.90
74294;DHT22;64044;59.904;10.738;2023-02-28T06:14:48;0.90;63.70
74294;DHT22;64044;59.904;10.738;2023-02-28T06:17:14;0.90;63.90
74294;DHT22;64044;59.904;10.738;2023-02-28T06:19:39;0.90;63.90
74294;DHT22;64044;59.904;10.738;2023-02-28T06:22:06;0.90;63.50
74294;DHT22;64044;59.904;10.738;2023-02-28T06:24:32;0.90;63.40
74294;DHT22;64044;59.904;10.738;2023-02-28T06:26:58;0.90;63.40
74294;DHT22;64044;59.904;10.738;2023-02-28T06:29:31;0.90;63.70
74294;DHT22;64044;59.904;10.738;2023-02-28T06:31:57;0.90;63.90
74294;DHT22;64044;59.904;10.738;2023-02-28T06:34:22;0.90;64.00
74294;DHT22;64044;59.904;10.738;2023-02-28T06:36:50;0.90;64.00
74294;DHT22;64044;59.904;10.738;2023-02-28T06:39:16;0.90;65.20
74294;DHT22;64044;59.904;10.738;2023-02-28T06:41:42;0.90;64.30
74294;DHT22;64044;59.904;10.738;2023-02-28T06:44:13;0.90;64.00
74294;DHT22;64044;59.904;10.738;2023-02-28T06:46:41;0.90;63.90
74294;DHT22;64044;59.904;10.738;2023-02-28T06:49:07;0.90;63.70
74294;DHT22;64044;59.904;10.738;2023-02-28T06:51:38;0.90;63.40
74294;DHT22;64044;59.904;10.738;2023-02-28T06:54:05;0.90;63.70
74294;DHT22;64044;59.904;10.738;2023-02-28T06:56:31;0.90;63.90
74294;DHT22;64044;59.904;10.738;2023-02-28T06:58:56;0.90;63.90
74294;DHT22;64044;59.904;10.738;2023-02-28T07:01:22;0.90;63.80
74294;DHT22;64044;59.904;10.738;2023-02-28T07:03:50;1.00;64.00
74294;DHT22;64044;59.904;10.738;2023-02-28T07:06:21;1.00;63.60
74294;DHT22;64044;59.904;10.738;2023-02-28T07:08:51;1.00;64.00
74294;DHT22;64044;59.904;10.738;2023-02-28T07:11:21;1.00;64.10
74294;DHT22;64044;59.904;10.738;2023-02-28T07:13:51;1.00;64.50
74294;DHT22;64044;59.904;10.738;2023-02-28T07:16:18;1.10;64.70
74294;DHT22;64044;59.904;10.738;2023-02-28T07:18:44;1.10;64.80
74294;DHT22;64044;59.904;10.738;2023-02-28T07:21:10;1.10;64.80
74294;DHT22;64044;59.904;10.738;2023-02-28T07:23:36;1.10;64.80
74294;DHT22;64044;59.904;10.738;2023-02-28T07:26:04;1.20;64.70
74294;DHT22;64044;59.904;10.738;2023-02-28T07:28:30;1.20;64.40
74294;DHT22;64044;59.904;10.738;2023-02-28T07:30:55;1.20;64.00
74294;DHT22;64044;59.904;10.738;2023-02-28T07:33:21;1.30;64.10
74294;DHT22;64044;59.904;10.738;2023-02-28T07:35:47;1.30;63.80
74294;DHT22;64044;59.904;10.738;2023-02-28T07:38:13;1.30;64.10
74294;DHT22;64044;59.904;10.738;2023-02-28T07:40:39;1.40;64.40
74294;DHT22;64044;59.904;10.738;2023-02-28T07:43:05;1.40;64.60
74294;DHT22;64044;59.904;10.738;2023-02-28T07:45:30;1.40;64.20
74294;DHT22;64044;59.904;10.738;2023-02-28T07:48:00;1.50;64.20
74294;DHT22;64044;59.904;10.738;2023-02-28T07:50:26;1.50;63.40
74294;DHT22;64044;59.904;10.738;2023-02-28T07:52:57;1.50;63.50
74294;DHT22;64044;59.904;10.738;2023-02-28T07:55:23;1.60;63.80
74294;DHT22;64044;59.904;10.738;2023-02-28T07:57:48;1.60;64.30
74294;DHT22;64044;59.904;10.738;2023-02-28T08:00:14;1.60;63.70
74294;DHT22;64044;59.904;10.738;2023-02-28T08:02:40;1.70;63.90
74294;DHT22;64044;59.904;10.738;2023-02-28T08:05:07;1.80;63.90
74294;DHT22;64044;59.904;10.738;2023-02-28T08:07:33;1.80;64.70
74294;DHT22;64044;59.904;10.738;2023-02-28T08:09:59;1.80;63.80
74294;DHT22;64044;59.904;10.738;2023-02-28T08:12:25;1.90;63.80
74294;DHT22;64044;59.904;10.738;2023-02-28T08:14:51;1.90;63.90
74294;DHT22;64044;59.904;10.738;2023-02-28T08:17:16;1.90;64.10
74294;DHT22;64044;59.904;10.738;2023-02-28T08:19:44;2.10;64.10
74294;DHT22;64044;59.904;10.738;2023-02-28T08:22:10;2.10;63.80
74294;DHT22;64044;59.904;10.738;2023-02-28T08:24:36;2.10;63.30
74294;DHT22;64044;59.904;10.738;2023-02-28T08:27:01;2.20;63.00
74294;DHT22;64044;59.904;10.738;2023-02-28T08:29:27;2.30;63.10
74294;DHT22;64044;59.904;10.738;2023-02-28T08:31:53;2.30;63.20
74294;DHT22;64044;59.904;10.738;2023-02-28T08:34:18;2.40;63.10
74294;DHT22;64044;59.904;10.738;2023-02-28T08:36:44;2.40;62.90
74294;DHT22;64044;59.904;10.738;2023-02-28T08:39:12;2.50;62.70
74294;DHT22;64044;59.904;10.738;2023-02-28T08:41:38;2.60;62.70
74294;DHT22;64044;59.904;10.738;2023-02-28T08:44:04;2.60;62.50
74294;DHT22;64044;59.904;10.738;2023-02-28T08:46:29;2.70;62.40
74294;DHT22;64044;59.904;10.738;2023-02-28T08:48:56;2.80;62.20
74294;DHT22;64044;59.904;10.738;2023-02-28T08:51:25;2.80;62.10
74294;DHT22;64044;59.904;10.738;2023-02-28T08:53:59;2.90;62.00
74294;DHT22;64044;59.904;10.738;2023-02-28T08:56:26;3.00;62.20
74294;DHT22;64044;59.904;10.738;2023-02-28T08:58:54;3.00;62.00
74294;DHT22;64044;59.904;10.738;2023-02-28T09:01:24;3.10;62.00
74294;DHT22;64044;59.904;10.738;2023-02-28T09:03:50;3.20;61.80
74294;DHT22;64044;59.904;10.738;2023-02-28T09:06:18;3.20;61.60
74294;DHT22;64044;59.904;10.738;2023-02-28T09:08:44;3.30;61.60
74294;DHT22;64044;59.904;10.738;2023-02-28T09:11:11;3.30;61.60
74294;DHT22;64044;59.904;10.738;2023-02-28T09:13:37;3.40;61.50
74294;DHT22;64044;59.904;10.738;2023-02-28T09:16:05;3.40;61.40
74294;DHT22;64044;59.904;10.738;2023-02-28T09:18:33;3.50;61.30
74294;DHT22;64044;59.904;10.738;2023-02-28T09:20:58;3.60;61.20
74294;DHT22;64044;59.904;10.738;2023-02-28T09:23:24;3.70;61.30
74294;DHT22;64044;59.904;10.738;2023-02-28T09:25:52;3.70;61.60
74294;DHT22;64044;59.904;10.738;2023-02-28T09:28:19;3.80;61.50
74294;DHT22;64044;59.904;10.738;2023-02-28T09:30:47;3.80;61.20
74294;DHT22;64044;59.904;10.738;2023-02-28T09:33:14;3.90;61.00
74294;DHT22;64044;59.904;10.738;2023-02-28T09:35:40;3.90;60.80
74294;DHT22;64044;59.904;10.738;2023-02-28T09:38:06;3.90;60.60
74294;DHT22;64044;59.904;10.738;2023-02-28T09:40:56;4.00;60.40
74294;DHT22;64044;59.904;10.738;2023-02-28T09:43:25;4.00;60.30
74294;DHT22;64044;59.904;10.738;2023-02-28T09:46:28;4.10;60.20
74294;DHT22;64044;59.904;10.738;2023-02-28T09:48:55;4.20;61.20
74294;DHT22;64044;59.904;10.738;2023-02-28T09:51:44;4.20;59.80
74294;DHT22;64044;59.904;10.738;2023-02-28T09:54:23;4.30;59.70
74294;DHT22;64044;59.904;10.738;2023-02-28T09:56:59;4.40;59.50
74294;DHT22;64044;59.904;10.738;2023-02-28T10:04:59;4.50;59.40
74294;DHT22;64044;59.904;10.738;2023-02-28T10:10:21;4.60;59.30
74294;DHT22;64044;59.904;10.738;2023-02-28T10:12:47;4.70;59.30
74294;DHT22;64044;59.904;10.738;2023-02-28T10:15:15;4.70;59.10
74294;DHT22;64044;59.904;10.738;2023-02-28T10:17:44;4.80;59.10
74294;DHT22;64044;59.904;10.738;2023-02-28T10:20:11;4.90;59.20
74294;DHT22;64044;59.904;10.738;2023-02-28T10:25:34;5.00;59.10
74294;DHT22;64044;59.904;10.738;2023-02-28T10:28:18;5.10;58.70
74294;DHT22;64044;59.904;10.738;2023-02-28T10:30:49;5.20;58.70
74294;DHT22;64044;59.904;10.738;2023-02-28T10:35:47;5.30;58.60
74294;DHT22;64044;59.904;10.738;2023-02-28T10:38:20;5.40;58.40
74294;DHT22;64044;59.904;10.738;2023-02-28T10:40:46;5.50;58.30
74294;DHT22;64044;59.904;10.738;2023-02-28T10:46:01;5.70;58.50
74294;DHT22;64044;59.904;10.738;2023-02-28T10:48:32;5.90;58.50
74294;DHT22;64044;59.904;10.738;2023-02-28T10:50:58;6.00;58.50
74294;DHT22;64044;59.904;10.738;2023-02-28T10:53:35;6.20;58.60
74294;DHT22;64044;59.904;10.738;2023-02-28T11:01:43;7.20;57.30
74294;DHT22;64044;59.904;10.738;2023-02-28T11:06:57;7.90;55.90
74294;DHT22;64044;59.904;10.738;2023-02-28T11:11:57;8.50;54.50
74294;DHT22;64044;59.904;10.738;2023-02-28T11:14:28;8.80;55.00
74294;DHT22;64044;59.904;10.738;2023-02-28T11:16:58;9.10;54.70
74294;DHT22;64044;59.904;10.738;2023-02-28T11:19:29;9.40;54.60
74294;DHT22;64044;59.904;10.738;2023-02-28T11:21:59;9.80;54.40
74294;DHT22;64044;59.904;10.738;2023-02-28T11:24:30;10.10;54.40
74294;DHT22;64044;59.904;10.738;2023-02-28T11:26:57;10.50;53.90
74294;DHT22;64044;59.904;10.738;2023-02-28T11:29:32;10.90;52.80
74294;DHT22;64044;59.904;10.738;2023-02-28T11:34:47;11.80;50.90
74294;DHT22;64044;59.904;10.738;2023-02-28T11:37:26;12.30;50.10
74294;DHT22;64044;59.904;10.738;2023-02-28T11:39:52;12.80;49.10
74294;DHT22;64044;59.904;10.738;2023-02-28T11:52:56;14.90;43.70
74294;DHT22;64044;59.904;10.738;2023-02-28T11:55:45;15.30;43.70
74294;DHT22;64044;59.904;10.738;2023-02-28T12:01:32;16.00;40.50
74294;DHT22;64044;59.904;10.738;2023-02-28T12:07:09;16.60;38.70
74294;DHT22;64044;59.904;10.738;2023-02-28T12:18:26;17.40;35.90
74294;DHT22;64044;59.904;10.738;2023-02-28T12:26:41;17.80;35.80
74294;DHT22;64044;59.904;10.738;2023-02-28T12:29:24;18.00;34.70
74294;DHT22;64044;59.904;10.738;2023-02-28T12:32:09;18.10;34.40
74294;DHT22;64044;59.904;10.738;2023-02-28T12:34:44;18.30;34.10
74294;DHT22;64044;59.904;10.738;2023-02-28T12:37:23;18.40;34.80
74294;DHT22;64044;59.904;10.738;2023-02-28T12:39:56;18.50;34.80
74294;DHT22;64044;59.904;10.738;2023-02-28T12:42:29;18.70;34.60
74294;DHT22;64044;59.904;10.738;2023-02-28T12:45:00;18.90;34.90
74294;DHT22;64044;59.904;10.738;2023-02-28T12:47:26;19.00;34.50
74294;DHT22;64044;59.904;10.738;2023-02-28T12:50:07;19.20;33.80
74294;DHT22;64044;59.904;10.738;2023-02-28T12:53:06;19.20;32.60
74294;DHT22;64044;59.904;10.738;2023-02-28T12:55:42;19.30;31.60
74294;DHT22;64044;59.904;10.738;2023-02-28T13:03:50;19.60;29.80
74294;DHT22;64044;59.904;10.738;2023-02-28T13:11:40;19.80;28.90
74294;DHT22;64044;59.904;10.738;2023-02-28T13:19:25;19.90;28.60
74294;DHT22;64044;59.904;10.738;2023-02-28T13:21:52;19.90;29.50
74294;DHT22;64044;59.904;10.738;2023-02-28T13:39:55;20.50;27.80
74294;DHT22;64044;59.904;10.738;2023-02-28T13:47:41;21.10;27.30
74294;DHT22;64044;59.904;10.738;2023-02-28T14:02:03;22.90;25.50
74294;DHT22;64044;59.904;10.738;2023-02-28T14:05:10;23.30;25.10
74294;DHT22;64044;59.904;10.738;2023-02-28T14:07:46;23.80;24.90
74294;DHT22;64044;59.904;10.738;2023-02-28T14:15:43;24.80;24.80
74294;DHT22;64044;59.904;10.738;2023-02-28T14:18:31;25.00;23.50
74294;DHT22;64044;59.904;10.738;2023-02-28T14:21:08;25.20;23.20
74294;DHT22;64044;59.904;10.738;2023-02-28T14:23:39;25.30;23.80
74294;DHT22;64044;59.904;10.738;2023-02-28T14:31:24;25.50;23.50
74294;DHT22;64044;59.904;10.738;2023-02-28T14:36:58;25.50;22.60
74294;DHT22;64044;59.904;10.738;2023-02-28T14:39:27;25.40;23.70
74294;DHT22;64044;59.904;10.738;2023-02-28T14:41:56;25.30;23.30
74294;DHT22;64044;59.904;10.738;2023-02-28T14:44:28;25.20;23.40
74294;DHT22;64044;59.904;10.738;2023-02-28T14:47:00;25.10;23.30
74294;DHT22;64044;59.904;10.738;2023-02-28T14:49:35;25.00;22.90
74294;DHT22;64044;59.904;10.738;2023-02-28T14:52:25;25.00;23.50
74294;DHT22;64044;59.904;10.738;2023-02-28T14:54:55;24.90;22.50
74294;DHT22;64044;59.904;10.738;2023-02-28T14:57:39;24.80;23.60
74294;DHT22;64044;59.904;10.738;2023-02-28T15:02:41;24.70;23.50
74294;DHT22;64044;59.904;10.738;2023-02-28T15:07:36;24.60;23.80
74294;DHT22;64044;59.904;10.738;2023-02-28T15:10:24;24.60;24.70
74294;DHT22;64044;59.904;10.738;2023-02-28T15:12:57;24.50;23.70
74294;DHT22;64044;59.904;10.738;2023-02-28T15:15:45;24.30;24.70
74294;DHT22;64044;59.904;10.738;2023-02-28T15:18:38;24.00;23.60
74294;DHT22;64044;59.904;10.738;2023-02-28T15:21:12;23.50;23.50
74294;DHT22;64044;59.904;10.738;2023-02-28T15:23:43;22.90;23.70
74294;DHT22;64044;59.904;10.738;2023-02-28T15:26:15;22.30;23.90
74294;DHT22;64044;59.904;10.738;2023-02-28T15:28:42;21.60;24.10
74294;DHT22;64044;59.904;10.738;2023-02-28T15:31:28;20.90;24.60
74294;DHT22;64044;59.904;10.738;2023-02-28T15:33:56;20.10;24.90
74294;DHT22;64044;59.904;10.738;2023-02-28T15:36:26;19.50;25.50
74294;DHT22;64044;59.904;10.738;2023-02-28T15:38:53;18.90;26.20
74294;DHT22;64044;59.904;10.738;2023-02-28T15:41:25;18.40;26.70
74294;DHT22;64044;59.904;10.738;2023-02-28T15:46:43;17.20;27.70
74294;DHT22;64044;59.904;10.738;2023-02-28T15:49:18;16.80;28.30
74294;DHT22;64044;59.904;10.738;2023-02-28T15:51:44;16.30;29.30
74294;DHT22;64044;59.904;10.738;2023-02-28T15:54:19;15.90;29.30
74294;DHT22;64044;59.904;10.738;2023-02-28T15:56:53;15.50;30.40
74294;DHT22;64044;59.904;10.738;2023-02-28T15:59:26;15.00;30.70
74294;DHT22;64044;59.904;10.738;2023-02-28T16:02:16;14.60;31.30
74294;DHT22;64044;59.904;10.738;2023-02-28T16:07:21;13.90;32.60
74294;DHT22;64044;59.904;10.738;2023-02-28T16:09:47;13.60;32.30
74294;DHT22;64044;59.904;10.738;2023-02-28T16:12:13;13.30;32.50
74294;DHT22;64044;59.904;10.738;2023-02-28T16:14:39;12.90;32.80
74294;DHT22;64044;59.904;10.738;2023-02-28T16:17:12;12.70;33.30
74294;DHT22;64044;59.904;10.738;2023-02-28T16:19:40;12.40;34.70
74294;DHT22;64044;59.904;10.738;2023-02-28T16:22:07;12.10;34.40
74294;DHT22;64044;59.904;10.738;2023-02-28T16:24:33;11.90;34.90
74294;DHT22;64044;59.904;10.738;2023-02-28T16:27:31;11.70;35.40
74294;DHT22;64044;59.904;10.738;2023-02-28T16:30:00;11.40;36.40
74294;DHT22;64044;59.904;10.738;2023-02-28T16:32:26;11.20;35.90
74294;DHT22;64044;59.904;10.738;2023-02-28T16:34:52;11.00;36.30
74294;DHT22;64044;59.904;10.738;2023-02-28T16:37:18;10.80;36.40
74294;DHT22;64044;59.904;10.738;2023-02-28T16:39:45;10.60;36.70
74294;DHT22;64044;59.904;10.738;2023-02-28T16:42:16;10.50;36.90
74294;DHT22;64044;59.904;10.738;2023-02-28T16:44:43;10.40;37.50
74294;DHT22;64044;59.904;10.738;2023-02-28T16:47:10;10.30;37.90
74294;DHT22;64044;59.904;10.738;2023-02-28T16:49:36;10.10;38.20
74294;DHT22;64044;59.904;10.738;2023-02-28T16:52:02;9.90;38.40
74294;DHT22;64044;59.904;10.738;2023-02-28T16:54:27;9.80;38.80
74294;DHT22;64044;59.904;10.738;2023-02-28T16:56:53;9.70;39.10
74294;DHT22;64044;59.904;10.738;2023-02-28T16:59:23;9.50;39.30
74294;DHT22;64044;59.904;10.738;2023-02-28T17:01:50;9.40;39.80
74294;DHT22;64044;59.904;10.738;2023-02-28T17:04:17;9.20;39.60
74294;DHT22;64044;59.904;10.738;2023-02-28T17:06:43;9.10;39.90
74294;DHT22;64044;59.904;10.738;2023-02-28T17:09:20;9.00;40.20
74294;DHT22;64044;59.904;10.738;2023-02-28T17:11:46;8.80;41.10
74294;DHT22;64044;59.904;10.738;2023-02-28T17:14:13;8.80;40.80
74294;DHT22;64044;59.904;10.738;2023-02-28T17:16:40;8.70;41.10
74294;DHT22;64044;59.904;10.738;2023-02-28T17:19:08;8.50;41.50
74294;DHT22;64044;59.904;10.738;2023-02-28T17:21:36;8.40;41.80
74294;DHT22;64044;59.904;10.738;2023-02-28T17:24:03;8.30;41.80
74294;DHT22;64044;59.904;10.738;2023-02-28T17:26:29;8.20;42.00
74294;DHT22;64044;59.904;10.738;2023-02-28T17:28:57;8.10;42.10
74294;DHT22;64044;59.904;10.738;2023-02-28T17:31:24;8.00;42.60
74294;DHT22;64044;59.904;10.738;2023-02-28T17:33:51;7.90;42.70
74294;DHT22;64044;59.904;10.738;2023-02-28T17:36:22;7.80;42.60
74294;DHT22;64044;59.904;10.738;2023-02-28T17:38:48;7.70;42.90
74294;DHT22;64044;59.904;10.738;2023-02-28T17:41:14;7.70;42.90
74294;DHT22;64044;59.904;10.738;2023-02-28T17:43:40;7.60;43.10
74294;DHT22;64044;59.904;10.738;2023-02-28T17:46:15;7.50;43.20
74294;DHT22;64044;59.904;10.738;2023-02-28T17:48:43;7.40;43.60
74294;DHT22;64044;59.904;10.738;2023-02-28T17:51:11;7.40;43.20
74294;DHT22;64044;59.904;10.738;2023-02-28T17:53:37;7.30;43.40
74294;DHT22;64044;59.904;10.738;2023-02-28T17:56:03;7.30;43.40
74294;DHT22;64044;59.904;10.738;2023-02-28T17:58:29;7.20;43.50
74294;DHT22;64044;59.904;10.738;2023-02-28T18:00:56;7.20;43.60
74294;DHT22;64044;59.904;10.738;2023-02-28T18:03:22;7.10;43.80
74294;DHT22;64044;59.904;10.738;2023-02-28T18:05:49;7.10;44.00
74294;DHT22;64044;59.904;10.738;2023-02-28T18:08:15;7.10;44.30
74294;DHT22;64044;59.904;10.738;2023-02-28T18:10:42;7.00;44.70
74294;DHT22;64044;59.904;10.738;2023-02-28T18:13:07;6.90;44.90
74294;DHT22;64044;59.904;10.738;2023-02-28T18:15:33;6.90;44.90
74294;DHT22;64044;59.904;10.738;2023-02-28T18:17:59;6.80;45.30
74294;DHT22;64044;59.904;10.738;2023-02-28T18:20:25;6.70;45.70
74294;DHT22;64044;59.904;10.738;2023-02-28T18:22:51;6.70;46.30
74294;DHT22;64044;59.904;10.738;2023-02-28T18:25:17;6.60;46.50
74294;DHT22;64044;59.904;10.738;2023-02-28T18:27:44;6.60;46.90
74294;DHT22;64044;59.904;10.738;2023-02-28T18:30:21;6.50;46.80
74294;DHT22;64044;59.904;10.738;2023-02-28T18:32:47;6.50;47.00
74294;DHT22;64044;59.904;10.738;2023-02-28T18:35:13;6.40;46.90
74294;DHT22;64044;59.904;10.738;2023-02-28T18:37:39;6.40;46.80
74294;DHT22;64044;59.904;10.738;2023-02-28T18:40:05;6.40;46.90
74294;DHT22;64044;59.904;10.738;2023-02-28T18:42:31;6.30;47.00